sensor_id;sensor_type;location;lat;lon;timestamp;temperature;humidity
12276;DHT22;6200;48.144;11.424;2023-07-08T00:01:12;18.20;90.70
12276;DHT22;6200;48.144;11.424;2023-07-08T00:03:39;18.10;91.40
12276;DHT22;6200;48.144;11.424;2023-07-08T00:06:04;18.10;91.30
12276;DHT22;6200;48.144;11.424;2023-07-08T00:08:33;18.00;91.20
12276;DHT22;6200;48.144;11.424;2023-07-08T00:10:58;18.00;91.50
12276;DHT22;6200;48.144;11.424;2023-07-08T00:13:24;18.00;91.40
12276;DHT22;6200;48.144;11.424;2023-07-08T00:15:49;18.00;91.50
12276;DHT22;6200;48.144;11.424;2023-07-08T00:18:17;18.00;91.60
12276;DHT22;6200;48.144;11.424;2023-07-08T00:20:48;18.00;91.90
12276;DHT22;6200;48.144;11.424;2023-07-08T00:23:14;17.90;91.90
12276;DHT22;6200;48.144;11.424;2023-07-08T00:25:40;17.90;92.10
12276;DHT22;6200;48.144;11.424;2023-07-08T00:28:10;17.90;91.90
12276;DHT22;6200;48.144;11.424;2023-07-08T00:30:37;17.80;91.90
12276;DHT22;6200;48.144;11.424;2023-07-08T00:33:02;17.80;92.00
12276;DHT22;6200;48.144;11.424;2023-07-08T00:35:48;17.80;91.90
12276;DHT22;6200;48.144;11.424;2023-07-08T00:38:23;17.70;92.20
12276;DHT22;6200;48.144;11.424;2023-07-08T00:41:07;17.70;92.30
12276;DHT22;6200;48.144;11.424;2023-07-08T00:46:21;17.70;92.80
12276;DHT22;6200;48.144;11.424;2023-07-08T00:48:53;17.70;92.60
12276;DHT22;6200;48.144;11.424;2023-07-08T00:51:21;17.70;92.20
12276;DHT22;6200;48.144;11.424;2023-07-08T00:53:48;17.70;92.70
12276;DHT22;6200;48.144;11.424;2023-07-08T00:56:22;17.60;92.80
12276;DHT22;6200;48.144;11.424;2023-07-08T00:58:54;17.60;92.80
12276;DHT22;6200;48.144;11.424;2023-07-08T01:01:21;17.70;92.70
12276;DHT22;6200;48.144;11.424;2023-07-08T01:03:54;17.60;93.00
12276;DHT22;6200;48.144;11.424;2023-07-08T01:06:22;17.60;93.30
12276;DHT22;6200;48.144;11.424;2023-07-08T01:08:50;17.60;93.30
12276;DHT22;6200;48.144;11.424;2023-07-08T01:11:20;17.60;93.30
12276;DHT22;6200;48.144;11.424;2023-07-08T01:13:48;17.60;93.20
12276;DHT22;6200;48.144;11.424;2023-07-08T01:16:16;17.60;93.30
12276;DHT22;6200;48.144;11.424;2023-07-08T01:18:43;17.50;94.00
12276;DHT22;6200;48.144;11.424;2023-07-08T01:21:36;17.50;93.90
12276;DHT22;6200;48.144;11.424;2023-07-08T01:24:06;17.50;93.90
12276;DHT22;6200;48.144;11.424;2023-07-08T01:26:35;17.50;94.10
12276;DHT22;6200;48.144;11.424;2023-07-08T01:29:03;17.50;94.00
12276;DHT22;6200;48.144;11.424;2023-07-08T01:31:29;17.50;94.10
12276;DHT22;6200;48.144;11.424;2023-07-08T01:33:55;17.50;94.30
12276;DHT22;6200;48.144;11.424;2023-07-08T01:36:20;17.40;94.50
12276;DHT22;6200;48.144;11.424;2023-07-08T01:38:46;17.40;94.70
12276;DHT22;6200;48.144;11.424;2023-07-08T01:41:14;17.40;95.20
12276;DHT22;6200;48.144;11.424;2023-07-08T01:43:39;17.30;95.10
12276;DHT22;6200;48.144;11.424;2023-07-08T01:46:15;17.40;95.20
12276;DHT22;6200;48.144;11.424;2023-07-08T01:48:46;17.40;95.20
12276;DHT22;6200;48.144;11.424;2023-07-08T01:51:12;17.40;95.10
12276;DHT22;6200;48.144;11.424;2023-07-08T01:53:40;17.30;95.10
12276;DHT22;6200;48.144;11.424;2023-07-08T01:56:07;17.30;95.50
12276;DHT22;6200;48.144;11.424;2023-07-08T01:58:33;17.30;95.80
12276;DHT22;6200;48.144;11.424;2023-07-08T02:00:59;17.30;95.50
12276;DHT22;6200;48.144;11.424;2023-07-08T02:03:26;17.30;95.40
12276;DHT22;6200;48.144;11.424;2023-07-08T02:05:52;17.30;95.40
12276;DHT22;6200;48.144;11.424;2023-07-08T02:08:17;17.30;95.60
12276;DHT22;6200;48.144;11.424;2023-07-08T02:10:48;17.30;95.80
12276;DHT22;6200;48.144;11.424;2023-07-08T02:13:13;17.30;95.80
12276;DHT22;6200;48.144;11.424;2023-07-08T02:15:39;17.30;96.00
12276;DHT22;6200;48.144;11.424;2023-07-08T02:18:04;17.30;96.10
12276;DHT22;6200;48.144;11.424;2023-07-08T02:20:30;17.30;96.00
12276;DHT22;6200;48.144;11.424;2023-07-08T02:22:55;17.30;96.00
12276;DHT22;6200;48.144;11.424;2023-07-08T02:25:21;17.30;95.70
12276;DHT22;6200;48.144;11.424;2023-07-08T02:27:47;17.30;95.60
12276;DHT22;6200;48.144;11.424;2023-07-08T02:30:12;17.30;95.50
12276;DHT22;6200;48.144;11.424;2023-07-08T02:32:38;17.30;95.60
12276;DHT22;6200;48.144;11.424;2023-07-08T02:35:05;17.30;95.30
12276;DHT22;6200;48.144;11.424;2023-07-08T02:37:31;17.30;95.60
12276;DHT22;6200;48.144;11.424;2023-07-08T02:39:57;17.30;95.10
12276;DHT22;6200;48.144;11.424;2023-07-08T02:42:23;17.30;95.20
12276;DHT22;6200;48.144;11.424;2023-07-08T02:44:48;17.30;95.60
12276;DHT22;6200;48.144;11.424;2023-07-08T02:47:14;17.20;95.60
12276;DHT22;6200;48.144;11.424;2023-07-08T02:49:39;17.40;95.40
12276;DHT22;6200;48.144;11.424;2023-07-08T02:52:05;17.30;95.30
12276;DHT22;6200;48.144;11.424;2023-07-08T02:54:30;17.30;95.60
12276;DHT22;6200;48.144;11.424;2023-07-08T02:56:56;17.30;95.60
12276;DHT22;6200;48.144;11.424;2023-07-08T02:59:22;17.20;95.80
12276;DHT22;6200;48.144;11.424;2023-07-08T03:01:47;17.30;96.00
12276;DHT22;6200;48.144;11.424;2023-07-08T03:04:13;17.20;95.40
12276;DHT22;6200;48.144;11.424;2023-07-08T03:06:42;17.20;95.60
12276;DHT22;6200;48.144;11.424;2023-07-08T03:09:10;17.20;95.50
12276;DHT22;6200;48.144;11.424;2023-07-08T03:11:36;17.20;95.60
12276;DHT22;6200;48.144;11.424;2023-07-08T03:14:02;17.20;95.80
12276;DHT22;6200;48.144;11.424;2023-07-08T03:16:28;17.20;95.50
12276;DHT22;6200;48.144;11.424;2023-07-08T03:18:53;17.20;95.90
12276;DHT22;6200;48.144;11.424;2023-07-08T03:21:19;17.20;96.20
12276;DHT22;6200;48.144;11.424;2023-07-08T03:23:45;17.10;96.40
12276;DHT22;6200;48.144;11.424;2023-07-08T03:26:16;17.20;96.40
12276;DHT22;6200;48.144;11.424;2023-07-08T03:28:43;17.20;96.20
12276;DHT22;6200;48.144;11.424;2023-07-08T03:31:09;17.20;96.40
12276;DHT22;6200;48.144;11.424;2023-07-08T03:33:35;17.20;96.90
12276;DHT22;6200;48.144;11.424;2023-07-08T03:36:02;17.20;97.20
12276;DHT22;6200;48.144;11.424;2023-07-08T03:38:28;17.20;96.90
12276;DHT22;6200;48.144;11.424;2023-07-08T03:40:53;17.20;96.70
12276;DHT22;6200;48.144;11.424;2023-07-08T03:43:19;17.20;97.00
12276;DHT22;6200;48.144;11.424;2023-07-08T03:45:44;17.20;97.00
12276;DHT22;6200;48.144;11.424;2023-07-08T03:48:11;17.20;96.90
12276;DHT22;6200;48.144;11.424;2023-07-08T03:50:37;17.20;97.10
12276;DHT22;6200;48.144;11.424;2023-07-08T03:53:03;17.20;96.60
12276;DHT22;6200;48.144;11.424;2023-07-08T03:55:28;17.20;96.90
12276;DHT22;6200;48.144;11.424;2023-07-08T03:57:54;17.20;96.70
12276;DHT22;6200;48.144;11.424;2023-07-08T04:00:19;17.20;96.80
12276;DHT22;6200;48.144;11.424;2023-07-08T04:02:46;17.30;96.90
12276;DHT22;6200;48.144;11.424;2023-07-08T04:05:20;17.20;96.90
12276;DHT22;6200;48.144;11.424;2023-07-08T04:07:46;17.30;96.90
12276;DHT22;6200;48.144;11.424;2023-07-08T04:10:12;17.30;97.10
12276;DHT22;6200;48.144;11.424;2023-07-08T04:12:39;17.30;97.10
12276;DHT22;6200;48.144;11.424;2023-07-08T04:15:07;17.30;97.30
12276;DHT22;6200;48.144;11.424;2023-07-08T04:17:33;17.30;97.50
12276;DHT22;6200;48.144;11.424;2023-07-08T04:19:59;17.30;97.50
12276;DHT22;6200;48.144;11.424;2023-07-08T04:22:31;17.30;98.50
12276;DHT22;6200;48.144;11.424;2023-07-08T04:24:57;17.20;98.70
12276;DHT22;6200;48.144;11.424;2023-07-08T04:27:22;17.20;98.40
12276;DHT22;6200;48.144;11.424;2023-07-08T04:29:48;17.30;98.20
12276;DHT22;6200;48.144;11.424;2023-07-08T04:32:14;17.20;98.10
12276;DHT22;6200;48.144;11.424;2023-07-08T04:34:39;17.30;98.20
12276;DHT22;6200;48.144;11.424;2023-07-08T04:37:05;17.30;98.40
12276;DHT22;6200;48.144;11.424;2023-07-08T04:39:31;17.40;98.10
12276;DHT22;6200;48.144;11.424;2023-07-08T04:41:57;17.40;97.90
12276;DHT22;6200;48.144;11.424;2023-07-08T04:44:22;17.50;97.70
12276;DHT22;6200;48.144;11.424;2023-07-08T04:46:51;17.50;97.60
12276;DHT22;6200;48.144;11.424;2023-07-08T04:49:20;17.50;98.00
12276;DHT22;6200;48.144;11.424;2023-07-08T04:51:45;17.50;97.80
12276;DHT22;6200;48.144;11.424;2023-07-08T04:54:11;17.50;97.40
12276;DHT22;6200;48.144;11.424;2023-07-08T04:56:43;17.50;97.20
12276;DHT22;6200;48.144;11.424;2023-07-08T04:59:10;17.60;97.20
12276;DHT22;6200;48.144;11.424;2023-07-08T05:01:37;17.60;97.60
12276;DHT22;6200;48.144;11.424;2023-07-08T05:04:03;17.60;97.40
12276;DHT22;6200;48.144;11.424;2023-07-08T05:06:30;17.70;97.50
12276;DHT22;6200;48.144;11.424;2023-07-08T05:08:58;17.70;97.70
12276;DHT22;6200;48.144;11.424;2023-07-08T05:11:24;17.70;97.90
12276;DHT22;6200;48.144;11.424;2023-07-08T05:13:49;17.70;98.10
12276;DHT22;6200;48.144;11.424;2023-07-08T05:16:15;17.70;97.70
12276;DHT22;6200;48.144;11.424;2023-07-08T05:18:41;17.80;97.40
12276;DHT22;6200;48.144;11.424;2023-07-08T05:21:06;17.80;96.80
12276;DHT22;6200;48.144;11.424;2023-07-08T05:23:33;17.90;96.80
12276;DHT22;6200;48.144;11.424;2023-07-08T05:26:00;17.90;97.20
12276;DHT22;6200;48.144;11.424;2023-07-08T05:28:26;17.90;97.00
12276;DHT22;6200;48.144;11.424;2023-07-08T05:30:55;18.00;97.40
12276;DHT22;6200;48.144;11.424;2023-07-08T05:33:24;18.00;96.70
12276;DHT22;6200;48.144;11.424;2023-07-08T05:35:51;18.10;96.70
12276;DHT22;6200;48.144;11.424;2023-07-08T05:38:16;18.10;96.70
12276;DHT22;6200;48.144;11.424;2023-07-08T05:40:42;18.20;96.90
12276;DHT22;6200;48.144;11.424;2023-07-08T05:43:08;18.30;97.00
12276;DHT22;6200;48.144;11.424;2023-07-08T05:45:33;18.30;97.00
12276;DHT22;6200;48.144;11.424;2023-07-08T05:48:01;18.40;96.80
12276;DHT22;6200;48.144;11.424;2023-07-08T05:50:27;18.70;96.20
12276;DHT22;6200;48.144;11.424;2023-07-08T05:52:52;18.80;96.10
12276;DHT22;6200;48.144;11.424;2023-07-08T05:55:18;19.00;96.20
12276;DHT22;6200;48.144;11.424;2023-07-08T05:57:43;19.10;95.30
12276;DHT22;6200;48.144;11.424;2023-07-08T06:00:09;19.10;94.70
12276;DHT22;6200;48.144;11.424;2023-07-08T06:02:36;19.20;95.10
12276;DHT22;6200;48.144;11.424;2023-07-08T06:05:02;19.30;94.70
12276;DHT22;6200;48.144;11.424;2023-07-08T06:07:27;19.50;93.80
12276;DHT22;6200;48.144;11.424;2023-07-08T06:09:53;19.60;94.60
12276;DHT22;6200;48.144;11.424;2023-07-08T06:12:21;19.60;94.10
12276;DHT22;6200;48.144;11.424;2023-07-08T06:14:47;19.70;95.10
12276;DHT22;6200;48.144;11.424;2023-07-08T06:17:12;19.80;94.20
12276;DHT22;6200;48.144;11.424;2023-07-08T06:19:38;19.90;94.00
12276;DHT22;6200;48.144;11.424;2023-07-08T06:22:04;19.90;94.70
12276;DHT22;6200;48.144;11.424;2023-07-08T06:24:29;20.10;93.70
12276;DHT22;6200;48.144;11.424;2023-07-08T06:26:55;20.20;94.00
12276;DHT22;6200;48.144;11.424;2023-07-08T06:29:20;20.50;93.50
12276;DHT22;6200;48.144;11.424;2023-07-08T06:31:46;20.90;92.10
12276;DHT22;6200;48.144;11.424;2023-07-08T06:34:12;21.40;91.50
12276;DHT22;6200;48.144;11.424;2023-07-08T06:36:37;21.60;91.10
12276;DHT22;6200;48.144;11.424;2023-07-08T06:39:03;21.90;91.10
12276;DHT22;6200;48.144;11.424;2023-07-08T06:41:28;22.20;91.00
12276;DHT22;6200;48.144;11.424;2023-07-08T06:43:54;22.40;90.50
12276;DHT22;6200;48.144;11.424;2023-07-08T06:46:20;22.40;90.40
12276;DHT22;6200;48.144;11.424;2023-07-08T06:48:45;22.30;90.10
12276;DHT22;6200;48.144;11.424;2023-07-08T06:51:11;22.20;90.50
12276;DHT22;6200;48.144;11.424;2023-07-08T06:53:36;22.00;90.40
12276;DHT22;6200;48.144;11.424;2023-07-08T06:56:02;21.80;90.20
12276;DHT22;6200;48.144;11.424;2023-07-08T06:58:28;21.50;91.20
12276;DHT22;6200;48.144;11.424;2023-07-08T07:00:53;21.50;91.50
12276;DHT22;6200;48.144;11.424;2023-07-08T07:03:19;21.60;90.50
12276;DHT22;6200;48.144;11.424;2023-07-08T07:05:45;21.70;92.10
12276;DHT22;6200;48.144;11.424;2023-07-08T07:08:10;21.90;92.00
12276;DHT22;6200;48.144;11.424;2023-07-08T07:10:36;22.00;91.40
12276;DHT22;6200;48.144;11.424;2023-07-08T07:13:02;22.10;90.60
12276;DHT22;6200;48.144;11.424;2023-07-08T07:15:27;21.90;90.10
12276;DHT22;6200;48.144;11.424;2023-07-08T07:17:56;22.60;87.70
12276;DHT22;6200;48.144;11.424;2023-07-08T07:20:22;23.00;87.50
12276;DHT22;6200;48.144;11.424;2023-07-08T07:22:47;23.20;85.70
12276;DHT22;6200;48.144;11.424;2023-07-08T07:25:13;23.20;86.80
12276;DHT22;6200;48.144;11.424;2023-07-08T07:27:38;23.20;85.90
12276;DHT22;6200;48.144;11.424;2023-07-08T07:30:04;23.20;86.10
12276;DHT22;6200;48.144;11.424;2023-07-08T07:32:30;23.20;88.20
12276;DHT22;6200;48.144;11.424;2023-07-08T07:34:58;23.00;88.10
12276;DHT22;6200;48.144;11.424;2023-07-08T07:37:25;22.90;88.20
12276;DHT22;6200;48.144;11.424;2023-07-08T07:39:50;22.80;90.20
12276;DHT22;6200;48.144;11.424;2023-07-08T07:42:17;22.80;89.10
12276;DHT22;6200;48.144;11.424;2023-07-08T07:44:44;22.80;88.80
12276;DHT22;6200;48.144;11.424;2023-07-08T07:47:10;22.70;90.00
12276;DHT22;6200;48.144;11.424;2023-07-08T07:49:35;22.80;90.50
12276;DHT22;6200;48.144;11.424;2023-07-08T07:52:02;22.90;89.90
12276;DHT22;6200;48.144;11.424;2023-07-08T07:54:27;22.90;90.00
12276;DHT22;6200;48.144;11.424;2023-07-08T07:56:53;23.20;90.30
12276;DHT22;6200;48.144;11.424;2023-07-08T07:59:18;23.30;90.60
12276;DHT22;6200;48.144;11.424;2023-07-08T08:01:44;23.40;89.80
12276;DHT22;6200;48.144;11.424;2023-07-08T08:04:10;23.60;89.70
12276;DHT22;6200;48.144;11.424;2023-07-08T08:06:36;23.70;88.60
12276;DHT22;6200;48.144;11.424;2023-07-08T08:09:03;23.70;87.50
12276;DHT22;6200;48.144;11.424;2023-07-08T08:11:28;23.70;88.80
12276;DHT22;6200;48.144;11.424;2023-07-08T08:13:54;23.70;87.20
12276;DHT22;6200;48.144;11.424;2023-07-08T08:16:20;23.80;88.00
12276;DHT22;6200;48.144;11.424;2023-07-08T08:18:46;23.80;87.40
12276;DHT22;6200;48.144;11.424;2023-07-08T08:21:11;23.90;86.70
12276;DHT22;6200;48.144;11.424;2023-07-08T08:23:37;23.90;88.30
12276;DHT22;6200;48.144;11.424;2023-07-08T08:26:03;24.00;86.00
12276;DHT22;6200;48.144;11.424;2023-07-08T08:28:28;24.10;86.10
12276;DHT22;6200;48.144;11.424;2023-07-08T08:30:54;24.20;86.70
12276;DHT22;6200;48.144;11.424;2023-07-08T08:33:20;24.20;85.00
12276;DHT22;6200;48.144;11.424;2023-07-08T08:35:45;24.20;85.20
12276;DHT22;6200;48.144;11.424;2023-07-08T08:38:11;24.20;85.60
12276;DHT22;6200;48.144;11.424;2023-07-08T08:40:39;24.20;86.20
12276;DHT22;6200;48.144;11.424;2023-07-08T08:43:12;24.40;85.30
12276;DHT22;6200;48.144;11.424;2023-07-08T08:45:48;24.40;87.00
12276;DHT22;6200;48.144;11.424;2023-07-08T08:48:18;24.50;83.70
12276;DHT22;6200;48.144;11.424;2023-07-08T08:50:53;24.60;83.90
12276;DHT22;6200;48.144;11.424;2023-07-08T08:53:21;24.60;81.50
12276;DHT22;6200;48.144;11.424;2023-07-08T08:55:52;24.60;82.40
12276;DHT22;6200;48.144;11.424;2023-07-08T08:58:40;24.50;84.10
12276;DHT22;6200;48.144;11.424;2023-07-08T09:01:16;24.50;81.80
12276;DHT22;6200;48.144;11.424;2023-07-08T09:04:37;24.60;83.60
12276;DHT22;6200;48.144;11.424;2023-07-08T09:06:43;24.60;81.70
12276;DHT22;6200;48.144;11.424;2023-07-08T09:09:15;24.60;81.30
12276;DHT22;6200;48.144;11.424;2023-07-08T09:11:44;24.60;82.40
12276;DHT22;6200;48.144;11.424;2023-07-08T09:14:22;24.60;81.90
12276;DHT22;6200;48.144;11.424;2023-07-08T09:19:26;24.70;81.00
12276;DHT22;6200;48.144;11.424;2023-07-08T09:22:21;24.60;82.80
12276;DHT22;6200;48.144;11.424;2023-07-08T09:24:56;24.70;84.10
12276;DHT22;6200;48.144;11.424;2023-07-08T09:27:23;24.70;82.50
12276;DHT22;6200;48.144;11.424;2023-07-08T09:29:49;24.70;84.60
12276;DHT22;6200;48.144;11.424;2023-07-08T09:34:57;24.80;82.40
12276;DHT22;6200;48.144;11.424;2023-07-08T09:37:34;24.80;81.80
12276;DHT22;6200;48.144;11.424;2023-07-08T09:40:03;24.80;81.30
12276;DHT22;6200;48.144;11.424;2023-07-08T09:42:32;24.90;81.10
12276;DHT22;6200;48.144;11.424;2023-07-08T09:45:10;25.00;81.70
12276;DHT22;6200;48.144;11.424;2023-07-08T09:47:37;25.00;81.30
12276;DHT22;6200;48.144;11.424;2023-07-08T09:50:17;25.10;81.20
12276;DHT22;6200;48.144;11.424;2023-07-08T09:52:43;25.20;82.50
12276;DHT22;6200;48.144;11.424;2023-07-08T09:55:12;25.30;79.60
12276;DHT22;6200;48.144;11.424;2023-07-08T09:57:38;25.40;81.10
12276;DHT22;6200;48.144;11.424;2023-07-08T10:00:12;25.50;81.60
12276;DHT22;6200;48.144;11.424;2023-07-08T10:02:43;25.60;79.60
12276;DHT22;6200;48.144;11.424;2023-07-08T10:05:35;25.70;79.20
12276;DHT22;6200;48.144;11.424;2023-07-08T10:08:02;25.70;79.20
12276;DHT22;6200;48.144;11.424;2023-07-08T10:10:34;25.80;79.20
12276;DHT22;6200;48.144;11.424;2023-07-08T10:13:04;25.90;78.70
12276;DHT22;6200;48.144;11.424;2023-07-08T10:15:38;26.00;78.70
12276;DHT22;6200;48.144;11.424;2023-07-08T10:18:08;27.50;78.10
12276;DHT22;6200;48.144;11.424;2023-07-08T10:23:56;26.20;75.80
12276;DHT22;6200;48.144;11.424;2023-07-08T10:26:27;26.40;75.70
12276;DHT22;6200;48.144;11.424;2023-07-08T10:28:57;26.40;75.70
12276;DHT22;6200;48.144;11.424;2023-07-08T10:34:13;26.50;76.80
12276;DHT22;6200;48.144;11.424;2023-07-08T10:36:51;26.50;74.40
12276;DHT22;6200;48.144;11.424;2023-07-08T10:42:38;26.70;75.40
12276;DHT22;6200;48.144;11.424;2023-07-08T10:47:51;26.80;75.90
12276;DHT22;6200;48.144;11.424;2023-07-08T10:55:55;26.90;75.60
12276;DHT22;6200;48.144;11.424;2023-07-08T10:58:34;27.00;74.90
12276;DHT22;6200;48.144;11.424;2023-07-08T11:06:41;27.10;73.80
12276;DHT22;6200;48.144;11.424;2023-07-08T11:09:13;27.10;73.90
12276;DHT22;6200;48.144;11.424;2023-07-08T11:11:55;27.20;71.10
12276;DHT22;6200;48.144;11.424;2023-07-08T11:14:40;27.30;72.90
12276;DHT22;6200;48.144;11.424;2023-07-08T11:17:20;27.30;72.20
12276;DHT22;6200;48.144;11.424;2023-07-08T11:22:45;27.40;70.70
12276;DHT22;6200;48.144;11.424;2023-07-08T11:25:18;27.50;70.40
12276;DHT22;6200;48.144;11.424;2023-07-08T11:27:47;27.50;69.90
12276;DHT22;6200;48.144;11.424;2023-07-08T11:30:16;27.50;70.10
12276;DHT22;6200;48.144;11.424;2023-07-08T11:32:45;27.50;70.60
12276;DHT22;6200;48.144;11.424;2023-07-08T11:35:23;27.60;72.10
12276;DHT22;6200;48.144;11.424;2023-07-08T11:37:52;27.60;68.20
12276;DHT22;6200;48.144;11.424;2023-07-08T11:40:20;27.60;70.30
12276;DHT22;6200;48.144;11.424;2023-07-08T11:42:59;27.60;69.80
12276;DHT22;6200;48.144;11.424;2023-07-08T11:45:53;27.60;69.90
12276;DHT22;6200;48.144;11.424;2023-07-08T11:48:26;27.60;69.70
12276;DHT22;6200;48.144;11.424;2023-07-08T11:50:54;27.70;70.10
12276;DHT22;6200;48.144;11.424;2023-07-08T11:58:59;27.70;70.30
12276;DHT22;6200;48.144;11.424;2023-07-08T12:01:40;28.30;70.50
12276;DHT22;6200;48.144;11.424;2023-07-08T12:04:25;28.90;69.00
12276;DHT22;6200;48.144;11.424;2023-07-08T12:09:48;29.80;66.10
12276;DHT22;6200;48.144;11.424;2023-07-08T12:12:23;30.40;66.20
12276;DHT22;6200;48.144;11.424;2023-07-08T12:14:50;30.80;61.90
12276;DHT22;6200;48.144;11.424;2023-07-08T12:17:15;31.20;60.80
12276;DHT22;6200;48.144;11.424;2023-07-08T12:19:43;31.50;60.70
12276;DHT22;6200;48.144;11.424;2023-07-08T12:22:10;31.80;62.50
12276;DHT22;6200;48.144;11.424;2023-07-08T12:24:37;32.00;60.00
12276;DHT22;6200;48.144;11.424;2023-07-08T12:27:03;32.30;58.90
12276;DHT22;6200;48.144;11.424;2023-07-08T12:29:30;32.50;58.50
12276;DHT22;6200;48.144;11.424;2023-07-08T12:31:58;32.80;58.60
12276;DHT22;6200;48.144;11.424;2023-07-08T12:34:25;33.10;57.90
12276;DHT22;6200;48.144;11.424;2023-07-08T12:36:51;33.30;54.80
12276;DHT22;6200;48.144;11.424;2023-07-08T12:39:17;33.50;54.90
12276;DHT22;6200;48.144;11.424;2023-07-08T12:41:44;33.70;55.90
12276;DHT22;6200;48.144;11.424;2023-07-08T12:44:21;33.70;56.40
12276;DHT22;6200;48.144;11.424;2023-07-08T12:46:49;33.60;56.20
12276;DHT22;6200;48.144;11.424;2023-07-08T12:49:19;33.70;56.30
12276;DHT22;6200;48.144;11.424;2023-07-08T12:51:45;33.60;55.60
12276;DHT22;6200;48.144;11.424;2023-07-08T12:54:12;33.70;53.60
12276;DHT22;6200;48.144;11.424;2023-07-08T12:56:39;33.70;55.20
12276;DHT22;6200;48.144;11.424;2023-07-08T12:59:06;33.60;55.20
12276;DHT22;6200;48.144;11.424;2023-07-08T13:01:34;33.60;53.90
12276;DHT22;6200;48.144;11.424;2023-07-08T13:04:03;33.70;55.30
12276;DHT22;6200;48.144;11.424;2023-07-08T13:06:32;33.70;56.10
12276;DHT22;6200;48.144;11.424;2023-07-08T13:09:23;33.60;54.00
12276;DHT22;6200;48.144;11.424;2023-07-08T13:11:52;33.50;54.50
12276;DHT22;6200;48.144;11.424;2023-07-08T13:14:22;33.40;55.30
12276;DHT22;6200;48.144;11.424;2023-07-08T13:16:48;33.40;54.80
12276;DHT22;6200;48.144;11.424;2023-07-08T13:19:14;33.10;55.80
12276;DHT22;6200;48.144;11.424;2023-07-08T13:21:40;33.00;54.90
12276;DHT22;6200;48.144;11.424;2023-07-08T13:24:10;32.80;54.70
12276;DHT22;6200;48.144;11.424;2023-07-08T13:26:36;32.70;54.40
12276;DHT22;6200;48.144;11.424;2023-07-08T13:29:11;32.80;54.20
12276;DHT22;6200;48.144;11.424;2023-07-08T13:31:39;33.00;53.20
12276;DHT22;6200;48.144;11.424;2023-07-08T13:34:08;33.20;52.00
12276;DHT22;6200;48.144;11.424;2023-07-08T13:36:37;33.40;52.10
12276;DHT22;6200;48.144;11.424;2023-07-08T13:39:12;33.70;52.90
12276;DHT22;6200;48.144;11.424;2023-07-08T13:41:43;33.80;49.30
12276;DHT22;6200;48.144;11.424;2023-07-08T13:44:09;33.70;50.30
12276;DHT22;6200;48.144;11.424;2023-07-08T13:46:43;33.60;51.70
12276;DHT22;6200;48.144;11.424;2023-07-08T13:49:13;33.70;50.10
12276;DHT22;6200;48.144;11.424;2023-07-08T13:51:40;33.90;51.30
12276;DHT22;6200;48.144;11.424;2023-07-08T13:54:26;33.90;51.00
12276;DHT22;6200;48.144;11.424;2023-07-08T13:56:53;33.90;50.10
12276;DHT22;6200;48.144;11.424;2023-07-08T13:59:23;33.70;54.70
12276;DHT22;6200;48.144;11.424;2023-07-08T14:01:52;33.50;53.60
12276;DHT22;6200;48.144;11.424;2023-07-08T14:04:21;33.70;52.30
12276;DHT22;6200;48.144;11.424;2023-07-08T14:06:48;34.10;51.00
12276;DHT22;6200;48.144;11.424;2023-07-08T14:09:16;34.00;50.00
12276;DHT22;6200;48.144;11.424;2023-07-08T14:11:43;33.70;49.70
12276;DHT22;6200;48.144;11.424;2023-07-08T14:14:09;33.70;51.90
12276;DHT22;6200;48.144;11.424;2023-07-08T14:16:41;33.40;52.40
12276;DHT22;6200;48.144;11.424;2023-07-08T14:19:12;33.30;53.60
12276;DHT22;6200;48.144;11.424;2023-07-08T14:21:38;33.10;53.30
12276;DHT22;6200;48.144;11.424;2023-07-08T14:24:11;32.90;52.70
12276;DHT22;6200;48.144;11.424;2023-07-08T14:26:41;32.60;51.90
12276;DHT22;6200;48.144;11.424;2023-07-08T14:29:06;32.50;52.60
12276;DHT22;6200;48.144;11.424;2023-07-08T14:31:32;32.40;52.10
12276;DHT22;6200;48.144;11.424;2023-07-08T14:34:06;32.20;51.90
12276;DHT22;6200;48.144;11.424;2023-07-08T14:36:32;32.30;52.10
12276;DHT22;6200;48.144;11.424;2023-07-08T14:38:57;32.10;51.90
12276;DHT22;6200;48.144;11.424;2023-07-08T14:41:24;32.00;50.80
12276;DHT22;6200;48.144;11.424;2023-07-08T14:43:50;31.90;52.70
12276;DHT22;6200;48.144;11.424;2023-07-08T14:46:15;32.00;52.30
12276;DHT22;6200;48.144;11.424;2023-07-08T14:48:42;32.00;50.00
12276;DHT22;6200;48.144;11.424;2023-07-08T14:51:07;32.00;48.60
12276;DHT22;6200;48.144;11.424;2023-07-08T14:53:33;32.00;49.40
12276;DHT22;6200;48.144;11.424;2023-07-08T14:56:00;32.00;48.70
12276;DHT22;6200;48.144;11.424;2023-07-08T14:58:32;31.90;51.30
12276;DHT22;6200;48.144;11.424;2023-07-08T15:01:11;31.70;49.40
12276;DHT22;6200;48.144;11.424;2023-07-08T15:03:37;31.80;47.20
12276;DHT22;6200;48.144;11.424;2023-07-08T15:06:09;31.50;49.60
12276;DHT22;6200;48.144;11.424;2023-07-08T15:08:35;31.30;50.40
12276;DHT22;6200;48.144;11.424;2023-07-08T15:11:01;31.20;49.70
12276;DHT22;6200;48.144;11.424;2023-07-08T15:13:29;31.10;51.00
12276;DHT22;6200;48.144;11.424;2023-07-08T15:15:55;31.00;51.90
12276;DHT22;6200;48.144;11.424;2023-07-08T15:18:20;30.90;53.40
12276;DHT22;6200;48.144;11.424;2023-07-08T15:20:46;31.00;49.20
12276;DHT22;6200;48.144;11.424;2023-07-08T15:23:12;31.00;49.80
12276;DHT22;6200;48.144;11.424;2023-07-08T15:25:43;30.90;53.90
12276;DHT22;6200;48.144;11.424;2023-07-08T15:28:32;30.80;50.70
12276;DHT22;6200;48.144;11.424;2023-07-08T15:30:58;30.80;52.30
12276;DHT22;6200;48.144;11.424;2023-07-08T15:33:25;30.80;50.40
12276;DHT22;6200;48.144;11.424;2023-07-08T15:35:51;30.80;52.20
12276;DHT22;6200;48.144;11.424;2023-07-08T15:38:18;30.80;53.00
12276;DHT22;6200;48.144;11.424;2023-07-08T15:40:43;30.80;54.10
12276;DHT22;6200;48.144;11.424;2023-07-08T15:43:12;30.80;55.30
12276;DHT22;6200;48.144;11.424;2023-07-08T15:45:39;30.80;56.40
12276;DHT22;6200;48.144;11.424;2023-07-08T15:48:12;30.70;55.60
12276;DHT22;6200;48.144;11.424;2023-07-08T15:50:38;30.70;57.20
12276;DHT22;6200;48.144;11.424;2023-07-08T15:53:03;30.60;55.00
12276;DHT22;6200;48.144;11.424;2023-07-08T15:55:34;30.70;56.40
12276;DHT22;6200;48.144;11.424;2023-07-08T15:58:24;30.60;56.80
12276;DHT22;6200;48.144;11.424;2023-07-08T16:00:50;30.60;57.30
12276;DHT22;6200;48.144;11.424;2023-07-08T16:03:26;30.50;55.50
12276;DHT22;6200;48.144;11.424;2023-07-08T16:05:53;30.40;56.70
12276;DHT22;6200;48.144;11.424;2023-07-08T16:08:19;30.30;58.20
12276;DHT22;6200;48.144;11.424;2023-07-08T16:10:49;30.20;57.50
12276;DHT22;6200;48.144;11.424;2023-07-08T16:13:18;30.10;57.90
12276;DHT22;6200;48.144;11.424;2023-07-08T16:15:44;30.20;54.80
12276;DHT22;6200;48.144;11.424;2023-07-08T16:18:10;30.20;56.60
12276;DHT22;6200;48.144;11.424;2023-07-08T16:20:37;30.10;56.70